Strona główna
METAR-TAF:

METAR-TAF

Lotnisko :

Port lotniczy Szanghaj-Pudong

Szanghaj-Pudong, Chiny

Szerokość geograficzna: 31-07N, Długość geograficzna: 121-46E, wysokość: 4 m

Aktualna obserwacja pogody

Raport powstał 27 minut temu, godzina 02:30 UTC
Wiatr 14 kt od północ, zmienny między północno-północny zachód i północny wschód
Temperatura 21°C
Wilgotność 49%
Ciśnienie 1022 hPa
Widzialność 10 km lub więcej
Mało chmury na wysokości 3300 ft

METAR: ZSPD 180230Z 01007MPS 340V040 9999 FEW033 21/10 Q1022 NOSIG

czas: 10:57 (02:57 UTC)

Prognoza

Raport powstał 5 godziny i 42 minut temu, godzina 21:15 UTC
Prognoza ważna od 18 godzina 00 UTC do 18 godzina 24 UTC
Wiatr 8 kt od północ
Widzialność: 5000 m
Przerywane chmury na wysokości 2000 ft
zamglenie

TAF: ZSPD 172115Z 1800/1824 36004MPS 5000 BR BKN020 TX21/1806Z TN15/1821Z

Obserwacja i prognoza pogody dla ponad 4000 lotnisk (raport METAR i TAF).

Dostępne stacje oznaczono żółtymi i czerwonymi punktami na mapie.

Najedź kursorem aby zobaczyć nazwę stacji.

Kliknij aby zobaczyć obserwacje i prognozy pogody.

Aby zmienić mapę: kliknij na zielony przycisk z czarnym krzyżykiem, aby powiększyć; na zielony przycisk z myślnikiem, aby pomniejszyć; na zielone strzałki, aby przejść do map sąsiednich.


METAR-TAF: